Time;durP1;ratioP1;P1;durP2;ratioP2;P2;SDS_P1;SDS_P2;PMS_P1;PMS_P2;Temp;Humidity;BMP_temperature;BMP_pressure;BME280_temperature;BME280_humidity;BME280_pressure;Samples;Min_cycle;Max_cycle;Signal;HPM_P1;HPM_P2
2024/02/11 00:02:19;;;;;;;6.25;5.00;;;;;;;;;;5075425;28;20045;-62
2024/02/11 00:04:46;;;;;;;5.63;5.00;;;;;;;;;;5064804;28;20053;-62
2024/02/11 00:07:13;;;;;;;5.38;4.35;;;;;;;;;;5055707;28;20367;-62
2024/02/11 00:09:40;;;;;;;5.30;4.60;;;;;;;;;;5062814;28;20044;-62
2024/02/11 00:12:08;;;;;;;6.55;4.78;;;;;;;;;;5075305;28;20494;-62
2024/02/11 00:14:36;;;;;;;5.13;4.50;;;;;;;;;;5074774;28;20056;-62
2024/02/11 00:17:03;;;;;;;7.57;4.97;;;;;;;;;;5056755;28;20053;-62
2024/02/11 00:19:30;;;;;;;9.05;5.13;;;;;;;;;;5054762;28;20060;-62
2024/02/11 00:21:57;;;;;;;6.22;4.57;;;;;;;;;;5054903;28;20049;-62
2024/02/11 00:24:29;;;;;;;7.30;4.22;;;;;;;;;;5054419;28;20052;-62
2024/02/11 00:26:56;;;;;;;5.50;4.25;;;;;;;;;;5071353;28;20071;-62
2024/02/11 00:29:23;;;;;;;5.32;4.55;;;;;;;;;;5074612;28;20059;-62
2024/02/11 00:31:52;;;;;;;7.32;4.22;;;;;;;;;;5074755;28;20498;-62
2024/02/11 00:34:19;;;;;;;6.57;4.05;;;;;;;;;;5072255;28;20055;-62
2024/02/11 00:36:47;;;;;;;7.75;4.00;;;;;;;;;;5053593;28;20053;-62
2024/02/11 00:39:13;;;;;;;5.75;4.05;;;;;;;;;;5054101;28;20414;-62
2024/02/11 00:41:41;;;;;;;5.53;4.20;;;;;;;;;;5054400;28;20056;-62
2024/02/11 00:44:09;;;;;;;7.30;4.13;;;;;;;;;;5054380;28;20492;-62
2024/02/11 00:46:35;;;;;;;6.18;4.32;;;;;;;;;;5074331;28;20057;-62
2024/02/11 00:49:04;;;;;;;8.45;4.82;;;;;;;;;;5074462;28;20399;-62
2024/02/11 00:51:33;;;;;;;5.85;4.38;;;;;;;;;;5068604;28;20045;-62
2024/02/11 00:53:59;;;;;;;7.03;5.28;;;;;;;;;;5073904;28;20059;-62
2024/02/11 00:56:26;;;;;;;5.47;4.30;;;;;;;;;;5073877;28;20048;-62
2024/02/11 00:58:53;;;;;;;5.00;3.85;;;;;;;;;;5074413;28;20057;-62
2024/02/11 01:01:22;;;;;;;4.13;3.42;;;;;;;;;;5074294;28;20060;-62
2024/02/11 01:03:56;;;;;;;6.35;3.50;;;;;;;;;;5074298;28;20052;-63
2024/02/11 01:06:24;;;;;;;4.68;3.47;;;;;;;;;;5055386;28;20090;-62
2024/02/11 01:08:51;;;;;;;6.05;3.80;;;;;;;;;;5054011;28;20060;-62
2024/02/11 01:11:19;;;;;;;5.68;4.18;;;;;;;;;;5053855;28;20075;-62
2024/02/11 01:13:45;;;;;;;5.10;4.10;;;;;;;;;;5053693;28;20389;-62
2024/02/11 01:16:12;;;;;;;4.72;3.88;;;;;;;;;;5060524;28;20056;-62
2024/02/11 01:18:39;;;;;;;5.93;4.05;;;;;;;;;;5053246;28;20056;-62
2024/02/11 01:21:07;;;;;;;6.00;3.85;;;;;;;;;;5054282;28;20056;-62
2024/02/11 01:23:35;;;;;;;7.50;4.07;;;;;;;;;;5053794;28;20056;-62
2024/02/11 01:26:01;;;;;;;6.75;4.28;;;;;;;;;;5053417;28;20119;-62
2024/02/11 01:28:30;;;;;;;5.53;4.47;;;;;;;;;;5053027;28;20408;-62
2024/02/11 01:30:57;;;;;;;6.75;4.40;;;;;;;;;;5053704;28;20044;-62
2024/02/11 01:33:23;;;;;;;4.72;4.15;;;;;;;;;;5053324;28;20507;-62
2024/02/11 01:35:50;;;;;;;4.88;4.10;;;;;;;;;;5051797;28;20484;-62
2024/02/11 01:38:17;;;;;;;6.03;3.30;;;;;;;;;;5051406;28;20060;-62
2024/02/11 01:40:45;;;;;;;5.78;3.50;;;;;;;;;;5051268;28;20515;-62
2024/02/11 01:43:12;;;;;;;4.88;3.75;;;;;;;;;;5050822;28;20048;-62
2024/02/11 01:45:39;;;;;;;5.15;4.03;;;;;;;;;;5062493;28;20056;-62
2024/02/11 01:48:08;;;;;;;4.20;3.58;;;;;;;;;;5071256;28;20510;-62
2024/02/11 01:50:36;;;;;;;5.20;3.75;;;;;;;;;;5068032;28;20049;-62
2024/02/11 01:53:04;;;;;;;5.65;4.07;;;;;;;;;;5072752;28;20048;-62
2024/02/11 01:55:31;;;;;;;5.43;3.53;;;;;;;;;;5072705;28;20395;-62
2024/02/11 01:58:00;;;;;;;4.90;3.58;;;;;;;;;;5073474;28;20056;-62
2024/02/11 02:00:28;;;;;;;4.65;3.75;;;;;;;;;;5069883;28;20068;-61
2024/02/11 02:02:56;;;;;;;5.28;3.92;;;;;;;;;;5052541;28;20049;-62
2024/02/11 02:05:23;;;;;;;6.93;4.30;;;;;;;;;;5055490;28;20415;-62
2024/02/11 02:07:53;;;;;;;4.60;3.83;;;;;;;;;;5060876;28;20057;-62
2024/02/11 02:10:20;;;;;;;5.35;4.05;;;;;;;;;;5053112;28;20420;-62
2024/02/11 02:12:47;;;;;;;6.82;4.50;;;;;;;;;;5053107;28;20053;-62
2024/02/11 02:15:15;;;;;;;8.32;4.90;;;;;;;;;;5059282;28;20048;-62
2024/02/11 02:17:45;;;;;;;5.47;4.45;;;;;;;;;;5073102;28;20376;-62
2024/02/11 02:20:13;;;;;;;5.75;4.70;;;;;;;;;;5066964;28;20053;-62
2024/02/11 02:22:42;;;;;;;5.75;4.28;;;;;;;;;;5052742;28;20049;-62
2024/02/11 02:25:09;;;;;;;7.13;4.57;;;;;;;;;;5057986;28;20119;-62
2024/02/11 02:27:37;;;;;;;6.22;4.60;;;;;;;;;;5072829;28;20063;-62
2024/02/11 02:30:04;;;;;;;6.95;4.78;;;;;;;;;;5072737;28;20064;-62
2024/02/11 02:32:31;;;;;;;6.63;4.45;;;;;;;;;;5072993;28;20475;-62
2024/02/11 02:34:58;;;;;;;6.40;4.65;;;;;;;;;;5068074;28;20049;-62
2024/02/11 02:37:25;;;;;;;6.68;4.45;;;;;;;;;;5052811;28;20056;-62
2024/02/11 02:39:53;;;;;;;5.30;4.78;;;;;;;;;;5052179;28;20056;-62
2024/02/11 02:42:20;;;;;;;6.78;4.63;;;;;;;;;;5052085;28;20059;-62
2024/02/11 02:44:47;;;;;;;6.20;4.53;;;;;;;;;;5054004;28;20060;-62
2024/02/11 02:47:13;;;;;;;6.75;4.70;;;;;;;;;;5072455;28;20079;-62
2024/02/11 02:49:40;;;;;;;5.63;4.60;;;;;;;;;;5072356;28;20045;-62
2024/02/11 02:52:07;;;;;;;6.13;4.85;;;;;;;;;;5070766;28;20380;-62
2024/02/11 02:54:34;;;;;;;6.22;5.18;;;;;;;;;;5071978;28;20053;-62
2024/02/11 02:57:03;;;;;;;6.25;5.00;;;;;;;;;;5072638;28;20379;-62
2024/02/11 02:59:29;;;;;;;6.88;5.35;;;;;;;;;;5072281;28;20076;-62
2024/02/11 03:01:58;;;;;;;5.85;5.25;;;;;;;;;;5076442;28;20053;-62
2024/02/11 03:04:25;;;;;;;6.20;5.57;;;;;;;;;;5056551;28;20522;-62
2024/02/11 03:06:52;;;;;;;7.90;5.55;;;;;;;;;;5069054;28;20498;-62
2024/02/11 03:09:19;;;;;;;7.32;5.60;;;;;;;;;;5076401;28;20510;-62
2024/02/11 03:11:49;;;;;;;6.22;5.38;;;;;;;;;;5076217;28;20075;-62
2024/02/11 03:14:18;;;;;;;5.93;4.95;;;;;;;;;;5076280;28;20131;-62
2024/02/11 03:16:45;;;;;;;5.82;4.97;;;;;;;;;;5074763;28;20060;-62
2024/02/11 03:19:13;;;;;;;6.78;5.20;;;;;;;;;;5075792;28;20415;-62
2024/02/11 03:21:40;;;;;;;5.95;4.75;;;;;;;;;;5060737;28;20479;-62
2024/02/11 03:24:07;;;;;;;7.88;5.18;;;;;;;;;;5054879;28;20060;-62
2024/02/11 03:26:34;;;;;;;6.25;4.32;;;;;;;;;;5069734;28;20068;-62
2024/02/11 03:29:01;;;;;;;5.68;4.65;;;;;;;;;;5073461;28;20056;-62
2024/02/11 03:31:29;;;;;;;7.47;4.45;;;;;;;;;;5073702;28;20052;-62
2024/02/11 03:33:56;;;;;;;6.50;4.45;;;;;;;;;;5074067;28;20605;-62
2024/02/11 03:36:24;;;;;;;6.88;4.68;;;;;;;;;;5059393;28;20083;-62
2024/02/11 03:38:51;;;;;;;7.47;4.38;;;;;;;;;;5053897;28;20411;-62
2024/02/11 03:41:18;;;;;;;6.85;4.70;;;;;;;;;;5055586;28;20049;-62
2024/02/11 03:43:44;;;;;;;6.72;4.90;;;;;;;;;;5055372;28;20053;-62
2024/02/11 03:46:11;;;;;;;7.30;4.82;;;;;;;;;;5067254;28;20457;-62
2024/02/11 03:48:41;;;;;;;5.30;4.22;;;;;;;;;;5075879;28;20064;-62
2024/02/11 03:51:07;;;;;;;7.68;4.80;;;;;;;;;;5065822;28;20049;-62
2024/02/11 03:53:34;;;;;;;5.22;4.30;;;;;;;;;;5055595;28;20487;-62
2024/02/11 03:56:04;;;;;;;7.00;4.65;;;;;;;;;;5055098;28;20475;-62
2024/02/11 03:58:30;;;;;;;5.55;4.20;;;;;;;;;;5055678;28;20080;-62
2024/02/11 04:00:57;;;;;;;5.95;4.10;;;;;;;;;;5055733;28;20060;-62
2024/02/11 04:03:25;;;;;;;5.45;4.50;;;;;;;;;;5055157;28;20049;-62
2024/02/11 04:05:55;;;;;;;5.75;4.22;;;;;;;;;;5055965;28;20055;-61
2024/02/11 04:08:24;;;;;;;5.97;4.47;;;;;;;;;;5075171;28;20056;-62
2024/02/11 04:10:52;;;;;;;5.43;4.28;;;;;;;;;;5075121;28;20048;-62
2024/02/11 04:13:23;;;;;;;6.28;3.90;;;;;;;;;;5075517;28;20051;-62
2024/02/11 04:15:51;;;;;;;5.40;4.55;;;;;;;;;;5074399;28;20048;-62
2024/02/11 04:18:21;;;;;;;7.78;4.40;;;;;;;;;;5074907;28;20071;-62
2024/02/11 04:20:48;;;;;;;;;;;;;;;;;;5068530;28;20076;-62
2024/02/11 04:23:16;;;;;;;8.02;4.25;;;;;;;;;;5054763;28;20370;-62
2024/02/11 04:25:45;;;;;;;4.55;3.97;;;;;;;;;;5061388;28;20060;-62
2024/02/11 04:28:12;;;;;;;6.65;4.38;;;;;;;;;;5074129;28;20099;-62
2024/02/11 04:30:42;;;;;;;6.57;4.28;;;;;;;;;;5073539;28;20059;-62
2024/02/11 04:33:11;;;;;;;;;;;;;;;;;;5074285;28;20052;-62
2024/02/11 04:35:39;;;;;;;4.43;3.78;;;;;;;;;;5067154;28;19920;-62
2024/02/11 04:38:11;;;;;;;6.88;4.72;;;;;;;;;;5054643;28;20056;-62
2024/02/11 04:40:40;;;;;;;7.75;4.75;;;;;;;;;;5053509;28;20052;-62
2024/02/11 04:43:07;;;;;;;6.63;4.53;;;;;;;;;;5052440;28;20068;-62
2024/02/11 04:45:37;;;;;;;5.82;4.70;;;;;;;;;;5057454;28;20063;-62
2024/02/11 04:48:04;;;;;;;8.00;4.35;;;;;;;;;;5072001;28;20072;-62
2024/02/11 04:50:32;;;;;;;7.15;4.68;;;;;;;;;;5068608;28;20423;-62
2024/02/11 04:53:02;;;;;;;6.45;4.90;;;;;;;;;;5052423;28;20064;-62
2024/02/11 04:55:29;;;;;;;5.80;5.20;;;;;;;;;;5056940;28;20051;-62
2024/02/11 04:57:59;;;;;;;4.63;4.10;;;;;;;;;;5074554;28;20501;-62
2024/02/11 05:00:26;;;;;;;7.30;4.80;;;;;;;;;;5074355;28;20055;-62
2024/02/11 05:02:53;;;;;;;6.72;5.05;;;;;;;;;;5074180;28;20542;-62
2024/02/11 05:05:25;;;;;;;5.25;4.50;;;;;;;;;;5070732;28;20052;-62
2024/02/11 05:07:52;;;;;;;5.32;4.50;;;;;;;;;;5054078;28;20060;-62
2024/02/11 05:10:21;;;;;;;5.40;4.90;;;;;;;;;;5053677;28;20057;-62
2024/02/11 05:12:49;;;;;;;6.05;4.60;;;;;;;;;;5054381;28;20059;-62
2024/02/11 05:15:20;;;;;;;5.70;4.72;;;;;;;;;;5056094;28;20064;-62
2024/02/11 05:17:50;;;;;;;5.88;4.88;;;;;;;;;;5074080;28;20490;-62
2024/02/11 05:20:23;;;;;;;6.68;4.70;;;;;;;;;;5072632;28;20430;-62
2024/02/11 05:22:50;;;;;;;5.70;4.95;;;;;;;;;;5053377;28;20384;-62
2024/02/11 05:25:20;;;;;;;6.40;5.38;;;;;;;;;;5053796;28;20048;-62
2024/02/11 05:27:49;;;;;;;9.15;4.80;;;;;;;;;;5053758;28;20064;-62
2024/02/11 05:30:16;;;;;;;8.70;5.80;;;;;;;;;;5053488;28;20056;-62
2024/02/11 05:32:45;;;;;;;6.18;4.55;;;;;;;;;;5053807;28;20052;-62
2024/02/11 05:35:13;;;;;;;8.63;5.68;;;;;;;;;;5053204;28;20056;-62
2024/02/11 05:37:41;;;;;;;7.85;5.55;;;;;;;;;;5051849;28;20055;-62
2024/02/11 05:40:10;;;;;;;9.50;5.38;;;;;;;;;;5051605;28;20052;-62
2024/02/11 05:42:38;;;;;;;7.90;6.00;;;;;;;;;;5051484;28;20055;-62
2024/02/11 05:45:06;;;;;;;7.03;6.32;;;;;;;;;;5050704;28;20507;-61
2024/02/11 05:47:33;;;;;;;7.82;6.13;;;;;;;;;;5062370;28;20513;-62
2024/02/11 05:50:01;;;;;;;9.02;6.85;;;;;;;;;;5071347;28;20056;-62
2024/02/11 05:52:28;;;;;;;7.45;6.65;;;;;;;;;;5054964;28;20053;-62
2024/02/11 05:54:55;;;;;;;8.95;6.32;;;;;;;;;;5052861;28;20053;-62
2024/02/11 05:57:22;;;;;;;9.00;7.00;;;;;;;;;;5053121;28;20429;-62
2024/02/11 05:59:50;;;;;;;8.80;6.32;;;;;;;;;;5053010;28;20071;-62
2024/02/11 06:02:17;;;;;;;7.55;6.47;;;;;;;;;;5053299;28;20053;-62
2024/02/11 06:04:43;;;;;;;7.05;6.03;;;;;;;;;;5052988;28;20476;-62
2024/02/11 06:07:12;;;;;;;9.65;6.10;;;;;;;;;;5064151;28;20056;-62
2024/02/11 06:09:39;;;;;;;7.18;6.25;;;;;;;;;;5072758;28;20063;-62
2024/02/11 06:12:06;;;;;;;7.30;6.15;;;;;;;;;;5073120;28;20052;-62
2024/02/11 06:14:34;;;;;;;9.10;6.93;;;;;;;;;;5072843;28;20072;-62
2024/02/11 06:17:00;;;;;;;9.27;6.88;;;;;;;;;;5072349;28;20056;-62
2024/02/11 06:19:28;;;;;;;9.35;7.13;;;;;;;;;;5072612;28;20517;-62
2024/02/11 06:21:55;;;;;;;7.60;6.60;;;;;;;;;;5059945;28;20079;-62
2024/02/11 06:24:24;;;;;;;9.18;6.95;;;;;;;;;;5052905;28;20056;-62
2024/02/11 06:26:51;;;;;;;8.23;6.53;;;;;;;;;;5065965;28;20059;-62
2024/02/11 06:29:19;;;;;;;8.55;7.20;;;;;;;;;;5072497;28;20053;-62
2024/02/11 06:31:49;;;;;;;7.90;6.78;;;;;;;;;;5072623;28;20056;-62
2024/02/11 06:34:16;;;;;;;8.77;6.57;;;;;;;;;;5071937;28;20064;-62
2024/02/11 06:36:43;;;;;;;7.90;6.53;;;;;;;;;;5066269;28;20055;-62
2024/02/11 06:39:10;;;;;;;7.00;6.25;;;;;;;;;;5072708;28;20060;-62
2024/02/11 06:41:38;;;;;;;7.20;6.28;;;;;;;;;;5070972;28;20411;-62
2024/02/11 06:44:06;;;;;;;9.70;6.90;;;;;;;;;;5056081;28;20078;-62
2024/02/11 06:46:33;;;;;;;6.57;5.55;;;;;;;;;;5052203;28;20059;-62
2024/02/11 06:49:00;;;;;;;6.13;5.50;;;;;;;;;;5068570;28;20140;-62
2024/02/11 06:51:31;;;;;;;6.03;4.72;;;;;;;;;;5050986;28;20080;-62
2024/02/11 06:53:57;;;;;;;4.82;4.05;;;;;;;;;;5051531;28;20056;-62
2024/02/11 06:56:25;;;;;;;4.60;3.30;;;;;;;;;;5054830;28;20049;-62
2024/02/11 06:58:56;;;;;;;4.65;3.33;;;;;;;;;;5071449;28;20147;-62
2024/02/11 07:01:23;;;;;;;5.20;3.30;;;;;;;;;;5061025;28;20060;-62
2024/02/11 07:03:51;;;;;;;3.60;2.75;;;;;;;;;;5051693;28;20064;-62
2024/02/11 07:06:18;;;;;;;3.05;2.42;;;;;;;;;;5065849;28;20400;-62
2024/02/11 07:08:45;;;;;;;3.85;2.50;;;;;;;;;;5072373;28;20056;-62
2024/02/11 07:11:12;;;;;;;3.45;2.00;;;;;;;;;;5056174;28;20060;-62
2024/02/11 07:13:39;;;;;;;3.75;1.30;;;;;;;;;;5052023;28;20056;-62
2024/02/11 07:16:08;;;;;;;1.33;0.82;;;;;;;;;;5052089;28;20341;-62
2024/02/11 07:18:37;;;;;;;2.08;0.70;;;;;;;;;;5051588;28;20504;-62
2024/02/11 07:21:04;;;;;;;1.08;0.68;;;;;;;;;;5053025;28;20096;-62
2024/02/11 07:23:32;;;;;;;2.10;0.95;;;;;;;;;;5052158;28;20060;-62
2024/02/11 07:25:58;;;;;;;1.40;0.90;;;;;;;;;;5050815;28;20498;-62
2024/02/11 07:28:25;;;;;;;1.85;0.70;;;;;;;;;;5051084;28;20060;-62
2024/02/11 07:30:52;;;;;;;2.72;1.23;;;;;;;;;;5051068;28;20053;-62
2024/02/11 07:33:20;;;;;;;2.85;1.20;;;;;;;;;;5050687;28;20100;-62
2024/02/11 07:35:47;;;;;;;3.15;1.42;;;;;;;;;;5051208;28;20060;-62
2024/02/11 07:38:14;;;;;;;5.07;1.73;;;;;;;;;;5051406;28;20053;-61
2024/02/11 07:40:41;;;;;;;2.88;1.60;;;;;;;;;;5052112;28;20052;-61
2024/02/11 07:43:09;;;;;;;3.53;1.80;;;;;;;;;;5049759;28;20060;-63
2024/02/11 07:45:38;;;;;;;4.30;1.73;;;;;;;;;;5049743;28;20052;-62
2024/02/11 07:48:05;;;;;;;4.18;2.10;;;;;;;;;;5068928;28;20057;-62
2024/02/11 07:50:34;;;;;;;5.57;1.85;;;;;;;;;;5066686;28;20491;-62
2024/02/11 07:53:01;;;;;;;4.40;1.90;;;;;;;;;;5052847;28;20423;-62
2024/02/11 07:55:27;;;;;;;4.40;2.20;;;;;;;;;;5052932;28;20068;-62
2024/02/11 07:57:55;;;;;;;5.28;2.47;;;;;;;;;;5054515;28;20093;-62
2024/02/11 08:00:21;;;;;;;5.50;2.00;;;;;;;;;;5055304;28;20053;-61
2024/02/11 08:02:50;;;;;;;6.30;2.22;;;;;;;;;;5055263;28;20056;-61
2024/02/11 08:05:17;;;;;;;6.75;2.03;;;;;;;;;;5055021;28;20064;-61
2024/02/11 08:07:45;;;;;;;6.72;2.28;;;;;;;;;;5059298;28;20076;-60
2024/02/11 08:10:12;;;;;;;9.15;2.90;;;;;;;;;;5054735;28;20060;-61
2024/02/11 08:12:38;;;;;;;9.32;3.35;;;;;;;;;;5054702;28;20045;-61
2024/02/11 08:15:05;;;;;;;7.43;2.50;;;;;;;;;;5056306;28;20060;-61
2024/02/11 08:17:32;;;;;;;4.22;2.10;;;;;;;;;;5066924;28;20055;-61
2024/02/11 08:19:59;;;;;;;6.28;2.20;;;;;;;;;;5064457;28;20064;-61
2024/02/11 08:22:26;;;;;;;6.20;2.35;;;;;;;;;;5055600;28;20057;-61
2024/02/11 08:24:54;;;;;;;7.45;2.75;;;;;;;;;;5058197;28;20049;-61
2024/02/11 08:27:21;;;;;;;6.72;2.50;;;;;;;;;;5053425;28;20480;-61
2024/02/11 08:29:51;;;;;;;6.50;2.72;;;;;;;;;;5072586;28;20056;-61
2024/02/11 08:32:18;;;;;;;8.60;3.05;;;;;;;;;;5072745;28;20064;-61
2024/02/11 08:34:44;;;;;;;8.85;2.80;;;;;;;;;;5070436;28;20067;-61
2024/02/11 08:37:11;;;;;;;8.57;2.97;;;;;;;;;;5059166;28;20055;-61
2024/02/11 08:39:38;;;;;;;5.80;2.58;;;;;;;;;;5056650;28;20053;-61
2024/02/11 08:42:08;;;;;;;9.15;2.67;;;;;;;;;;5055802;28;20052;-61
2024/02/11 08:44:35;;;;;;;9.63;2.97;;;;;;;;;;5052195;28;20514;-61
2024/02/11 08:47:02;;;;;;;9.10;2.85;;;;;;;;;;5053152;28;20053;-62
2024/02/11 08:49:29;;;;;;;7.97;3.28;;;;;;;;;;5056139;28;20406;-61
2024/02/11 08:51:56;;;;;;;7.65;2.95;;;;;;;;;;5054940;28;20057;-61
2024/02/11 08:54:23;;;;;;;6.97;2.97;;;;;;;;;;5054258;28;20056;-62
2024/02/11 08:56:50;;;;;;;8.02;3.25;;;;;;;;;;5054198;28;20132;-62
2024/02/11 08:59:19;;;;;;;11.65;3.63;;;;;;;;;;5053368;28;20503;-62
2024/02/11 09:01:50;;;;;;;8.48;3.08;;;;;;;;;;5054084;28;20060;-62
2024/02/11 09:04:17;;;;;;;7.88;3.47;;;;;;;;;;5053710;28;20057;-62
2024/02/11 09:06:44;;;;;;;10.00;3.80;;;;;;;;;;5054436;28;20384;-62
2024/02/11 09:09:11;;;;;;;8.07;3.50;;;;;;;;;;5055640;28;20057;-61
2024/02/11 09:11:38;;;;;;;8.63;3.40;;;;;;;;;;5053135;28;20064;-61
2024/02/11 09:14:05;;;;;;;7.57;3.45;;;;;;;;;;5053181;28;20057;-62
2024/02/11 09:16:34;;;;;;;7.53;3.47;;;;;;;;;;5053733;28;20044;-61
2024/02/11 09:19:01;;;;;;;6.53;3.42;;;;;;;;;;5053372;28;20064;-62
2024/02/11 09:21:27;;;;;;;7.80;3.30;;;;;;;;;;5054046;28;20056;-62
2024/02/11 09:23:55;;;;;;;8.23;3.75;;;;;;;;;;5060866;28;20052;-60
2024/02/11 09:26:23;;;;;;;6.03;3.65;;;;;;;;;;5057346;28;20048;-62
2024/02/11 09:28:49;;;;;;;8.02;3.80;;;;;;;;;;5053621;28;20060;-62
2024/02/11 09:31:16;;;;;;;6.72;3.00;;;;;;;;;;5060738;28;20053;-62
2024/02/11 09:33:44;;;;;;;8.95;4.35;;;;;;;;;;5053226;28;20072;-62
2024/02/11 09:36:11;;;;;;;7.35;3.80;;;;;;;;;;5061802;28;20041;-62
2024/02/11 09:38:38;;;;;;;7.55;4.53;;;;;;;;;;5061948;28;20053;-61
2024/02/11 09:41:06;;;;;;;8.60;4.28;;;;;;;;;;5063258;28;20049;-61
2024/02/11 09:43:33;;;;;;;5.88;3.33;;;;;;;;;;5063166;28;20044;-61
2024/02/11 09:46:01;;;;;;;8.05;3.70;;;;;;;;;;5060739;28;20041;-61
2024/02/11 09:48:28;;;;;;;6.18;3.78;;;;;;;;;;5059023;28;20048;-61
2024/02/11 09:50:57;;;;;;;7.18;3.83;;;;;;;;;;5058945;28;20053;-61
2024/02/11 09:53:24;;;;;;;7.68;4.47;;;;;;;;;;5060965;28;20479;-62
2024/02/11 09:55:51;;;;;;;8.57;4.57;;;;;;;;;;5063200;28;20052;-61
2024/02/11 09:58:18;;;;;;;7.30;3.60;;;;;;;;;;5061148;28;20861;-61
2024/02/11 10:00:45;;;;;;;7.43;3.92;;;;;;;;;;5062235;28;20059;-62
2024/02/11 10:03:17;;;;;;;5.93;3.80;;;;;;;;;;5059799;28;20411;-62
2024/02/11 10:05:46;;;;;;;7.72;3.90;;;;;;;;;;5058466;28;20049;-62
2024/02/11 10:08:15;;;;;;;7.33;4.20;;;;;;;;;;5061778;28;20063;-62
2024/02/11 10:10:43;;;;;;;9.10;5.05;;;;;;;;;;5071944;28;20061;-62
2024/02/11 10:13:17;;;;;;;7.15;3.70;;;;;;;;;;5073044;28;20048;-62
2024/02/11 10:15:44;;;;;;;7.95;4.20;;;;;;;;;;5072634;28;20059;-62
2024/02/11 10:18:11;;;;;;;6.22;3.83;;;;;;;;;;5071702;28;20052;-62
2024/02/11 10:20:38;;;;;;;7.13;3.90;;;;;;;;;;5056946;28;20163;-62
2024/02/11 10:23:05;;;;;;;7.35;4.40;;;;;;;;;;5053125;28;20049;-62
2024/02/11 10:25:34;;;;;;;6.85;4.20;;;;;;;;;;5052577;28;20053;-63
2024/02/11 10:28:01;;;;;;;7.40;3.50;;;;;;;;;;5059502;28;20053;-62
2024/02/11 10:30:27;;;;;;;8.45;3.72;;;;;;;;;;5052689;28;20049;-62
2024/02/11 10:32:55;;;;;;;8.23;3.50;;;;;;;;;;5056361;28;20053;-67
2024/02/11 10:35:22;;;;;;;6.72;3.60;;;;;;;;;;5052210;28;20058;-64
2024/02/11 10:37:49;;;;;;;7.70;3.53;;;;;;;;;;5052571;28;20364;-61
2024/02/11 10:40:16;;;;;;;7.32;3.35;;;;;;;;;;5056358;28;20045;-65
2024/02/11 10:42:44;;;;;;;5.93;3.33;;;;;;;;;;5052498;28;20056;-64
2024/02/11 10:45:11;;;;;;;7.32;3.70;;;;;;;;;;5051942;28;20057;-63
2024/02/11 10:47:38;;;;;;;6.78;3.70;;;;;;;;;;5053449;28;20040;-63
2024/02/11 10:50:05;;;;;;;5.68;3.35;;;;;;;;;;5060316;28;20392;-64
2024/02/11 10:52:35;;;;;;;4.50;2.80;;;;;;;;;;5067082;28;20053;-64
2024/02/11 10:55:02;;;;;;;5.30;3.17;;;;;;;;;;5065515;28;20059;-64
2024/02/11 10:57:31;;;;;;;5.65;3.10;;;;;;;;;;5069627;28;20368;-64
2024/02/11 11:00:00;;;;;;;6.53;3.17;;;;;;;;;;5060192;28;20075;-64
2024/02/11 11:02:27;;;;;;;6.70;3.17;;;;;;;;;;5062466;28;20059;-63
2024/02/11 11:04:55;;;;;;;6.60;3.05;;;;;;;;;;5056752;28;20467;-64
2024/02/11 11:07:23;;;;;;;5.97;3.17;;;;;;;;;;5061326;28;20047;-63
2024/02/11 11:09:50;;;;;;;5.72;3.25;;;;;;;;;;5066867;28;20063;-64
2024/02/11 11:12:18;;;;;;;6.53;3.13;;;;;;;;;;5063093;28;20056;-63
2024/02/11 11:14:45;;;;;;;4.85;3.00;;;;;;;;;;5059893;28;20423;-63
2024/02/11 11:17:20;;;;;;;6.03;3.38;;;;;;;;;;5056890;28;20049;-66
2024/02/11 11:19:50;;;;;;;5.38;2.90;;;;;;;;;;5059772;28;20063;-65
2024/02/11 11:22:23;;;;;;;6.70;3.38;;;;;;;;;;5063443;28;21653;-65
2024/02/11 11:24:51;;;;;;;6.53;2.70;;;;;;;;;;5056092;28;20056;-61
2024/02/11 11:27:19;;;;;;;6.85;2.95;;;;;;;;;;5059699;28;20506;-60
2024/02/11 11:29:46;;;;;;;5.10;2.60;;;;;;;;;;5061413;28;20051;-61
2024/02/11 11:32:14;;;;;;;4.70;2.67;;;;;;;;;;5064191;28;20049;-61
2024/02/11 11:34:42;;;;;;;7.20;3.00;;;;;;;;;;5075089;28;20525;-61
2024/02/11 11:37:10;;;;;;;7.93;3.10;;;;;;;;;;5072611;28;20048;-61
2024/02/11 11:39:37;;;;;;;7.88;2.92;;;;;;;;;;5073954;28;20534;-60
2024/02/11 11:42:05;;;;;;;6.75;3.03;;;;;;;;;;5071078;28;20057;-60
2024/02/11 11:44:32;;;;;;;5.07;2.88;;;;;;;;;;5073137;28;20051;-61
2024/02/11 11:46:59;;;;;;;5.75;2.63;;;;;;;;;;5067009;28;20480;-61
2024/02/11 11:49:26;;;;;;;6.45;3.00;;;;;;;;;;5060959;28;20048;-61
2024/02/11 11:51:57;;;;;;;6.72;3.28;;;;;;;;;;5056508;28;20506;-62
2024/02/11 11:54:26;;;;;;;7.82;3.15;;;;;;;;;;5070557;28;20049;-61
2024/02/11 11:56:56;;;;;;;7.25;3.35;;;;;;;;;;5063763;28;20412;-61
2024/02/11 11:59:24;;;;;;;6.72;2.83;;;;;;;;;;5054675;28;20075;-61
2024/02/11 12:01:51;;;;;;;8.10;3.42;;;;;;;;;;5055554;28;20060;-63
2024/02/11 12:04:18;;;;;;;5.38;2.83;;;;;;;;;;5066556;28;20056;-62
2024/02/11 12:06:45;;;;;;;4.97;2.58;;;;;;;;;;5059248;28;20411;-60
2024/02/11 12:09:15;;;;;;;5.20;2.95;;;;;;;;;;5057231;28;20063;-60
2024/02/11 12:11:42;;;;;;;5.22;2.58;;;;;;;;;;5061232;28;20059;-58
2024/02/11 12:14:09;;;;;;;6.65;2.75;;;;;;;;;;5064308;28;20491;-61
2024/02/11 12:16:36;;;;;;;4.78;2.40;;;;;;;;;;5064636;28;20044;-62
2024/02/11 12:19:04;;;;;;;6.57;2.60;;;;;;;;;;5059505;28;21638;-61
2024/02/11 12:21:31;;;;;;;6.38;2.78;;;;;;;;;;5059734;28;20059;-62
2024/02/11 12:24:00;;;;;;;7.18;2.33;;;;;;;;;;5064520;28;20496;-62
2024/02/11 12:26:28;;;;;;;4.90;2.70;;;;;;;;;;5064061;28;20044;-60
2024/02/11 12:28:55;;;;;;;5.55;2.30;;;;;;;;;;5063661;28;20049;-61
2024/02/11 12:31:23;;;;;;;4.75;2.10;;;;;;;;;;5060819;28;20057;-61
2024/02/11 12:33:50;;;;;;;4.47;2.28;;;;;;;;;;5064091;28;20415;-61
2024/02/11 12:36:19;;;;;;;4.30;2.55;;;;;;;;;;5067411;28;20044;-61
2024/02/11 12:38:47;;;;;;;4.93;2.83;;;;;;;;;;5054308;28;20731;-62
2024/02/11 12:41:14;;;;;;;6.35;2.55;;;;;;;;;;5055700;28;20053;-61
2024/02/11 12:43:44;;;;;;;4.80;2.38;;;;;;;;;;5058768;28;20044;-61
2024/02/11 12:46:11;;;;;;;5.53;2.28;;;;;;;;;;5057203;28;20053;-62
2024/02/11 12:48:38;;;;;;;3.97;2.55;;;;;;;;;;5054465;28;20049;-61
2024/02/11 12:51:05;;;;;;;5.70;2.13;;;;;;;;;;5063274;28;20048;-61
2024/02/11 12:53:33;;;;;;;6.45;2.75;;;;;;;;;;5059476;28;20052;-60
2024/02/11 12:56:05;;;;;;;5.70;2.65;;;;;;;;;;5069905;28;20052;-61
2024/02/11 12:58:32;;;;;;;3.97;2.53;;;;;;;;;;5071107;28;20044;-61
2024/02/11 13:01:00;;;;;;;4.00;2.10;;;;;;;;;;5072080;28;20056;-61
2024/02/11 13:03:28;;;;;;;4.30;2.40;;;;;;;;;;5071196;28;20052;-60
2024/02/11 13:05:55;;;;;;;3.75;2.00;;;;;;;;;;5060476;28;20392;-61
2024/02/11 13:08:23;;;;;;;4.30;2.10;;;;;;;;;;5065892;28;20044;-62
2024/02/11 13:10:50;;;;;;;5.68;2.42;;;;;;;;;;5060646;28;20414;-61
2024/02/11 13:13:17;;;;;;;5.43;2.75;;;;;;;;;;5071908;28;20411;-61
2024/02/11 13:15:44;;;;;;;6.40;2.17;;;;;;;;;;5056534;28;20492;-60
2024/02/11 13:18:14;;;;;;;5.68;2.70;;;;;;;;;;5053548;28;20045;-59
2024/02/11 13:20:42;;;;;;;5.35;2.53;;;;;;;;;;5067511;28;20462;-61
2024/02/11 13:23:09;;;;;;;5.55;2.45;;;;;;;;;;5063999;28;20053;-60
2024/02/11 13:25:37;;;;;;;4.68;2.45;;;;;;;;;;5053746;28;20059;-61
2024/02/11 13:28:04;;;;;;;5.05;2.33;;;;;;;;;;5056566;28;20044;-60
2024/02/11 13:30:31;;;;;;;4.80;2.20;;;;;;;;;;5053648;28;20055;-60
2024/02/11 13:32:58;;;;;;;3.88;2.13;;;;;;;;;;5053171;28;20487;-61
2024/02/11 13:35:26;;;;;;;4.55;2.08;;;;;;;;;;5053437;28;20056;-61
2024/02/11 13:37:53;;;;;;;3.92;2.10;;;;;;;;;;5053064;28;20049;-62
2024/02/11 13:40:20;;;;;;;4.35;2.20;;;;;;;;;;5053830;28;20052;-61
2024/02/11 13:42:47;;;;;;;3.22;1.83;;;;;;;;;;5056407;28;20064;-62
2024/02/11 13:45:14;;;;;;;3.67;2.13;;;;;;;;;;5052821;28;20056;-60
2024/02/11 13:47:41;;;;;;;4.03;1.92;;;;;;;;;;5053612;28;20492;-62
2024/02/11 13:50:08;;;;;;;4.03;2.35;;;;;;;;;;5053256;28;20072;-63
2024/02/11 13:52:37;;;;;;;4.50;2.25;;;;;;;;;;5055729;28;20045;-62
2024/02/11 13:55:05;;;;;;;2.75;1.70;;;;;;;;;;5053914;28;20053;-62
2024/02/11 13:57:32;;;;;;;4.13;2.13;;;;;;;;;;5062111;28;20063;-61
2024/02/11 13:59:59;;;;;;;4.68;2.05;;;;;;;;;;5069181;28;20045;-60
2024/02/11 14:02:27;;;;;;;5.00;2.00;;;;;;;;;;5056971;28;20053;-61
2024/02/11 14:04:54;;;;;;;3.30;2.17;;;;;;;;;;5052574;28;20506;-61
2024/02/11 14:07:21;;;;;;;4.32;2.10;;;;;;;;;;5053424;28;20451;-61
2024/02/11 14:09:50;;;;;;;3.47;1.98;;;;;;;;;;5059945;28;20059;-61
2024/02/11 14:12:16;;;;;;;3.08;2.20;;;;;;;;;;5053136;28;20053;-61
2024/02/11 14:14:43;;;;;;;2.95;1.95;;;;;;;;;;5072096;28;20114;-60
2024/02/11 14:17:12;;;;;;;4.25;2.15;;;;;;;;;;5055275;28;20499;-60
2024/02/11 14:19:39;;;;;;;6.43;2.22;;;;;;;;;;5067578;28;20044;-60
2024/02/11 14:22:08;;;;;;;3.55;2.10;;;;;;;;;;5067023;28;20049;-60
2024/02/11 14:24:35;;;;;;;3.78;2.20;;;;;;;;;;5072513;28;20061;-60
2024/02/11 14:27:04;;;;;;;3.40;2.25;;;;;;;;;;5071302;28;20056;-61
2024/02/11 14:29:31;;;;;;;4.15;2.33;;;;;;;;;;5070696;28;20057;-60
2024/02/11 14:31:59;;;;;;;4.72;2.17;;;;;;;;;;5067844;28;20064;-60
2024/02/11 14:34:29;;;;;;;4.22;2.00;;;;;;;;;;5050812;28;20049;-60
2024/02/11 14:36:56;;;;;;;3.35;2.30;;;;;;;;;;5050355;28;20060;-60
2024/02/11 14:39:23;;;;;;;3.70;2.17;;;;;;;;;;5067927;28;20074;-60
2024/02/11 14:41:51;;;;;;;3.95;2.20;;;;;;;;;;5069089;28;20060;-59
2024/02/11 14:44:20;;;;;;;4.03;2.35;;;;;;;;;;5052500;28;20056;-60
2024/02/11 14:46:47;;;;;;;3.08;2.13;;;;;;;;;;5052449;28;20064;-60